sensor_id;sensor_type;location;lat;lon;timestamp;P1;durP1;ratioP1;P2;durP2;ratioP2
12145;SDS011;6136;47.032;15.398;2022-08-25T00:00:16;5.47;;;4.73;;
12145;SDS011;6136;47.032;15.398;2022-08-25T00:02:45;5.97;;;5.10;;
12145;SDS011;6136;47.032;15.398;2022-08-25T00:05:24;9.67;;;5.03;;
12145;SDS011;6136;47.032;15.398;2022-08-25T00:07:58;7.20;;;4.77;;
12145;SDS011;6136;47.032;15.398;2022-08-25T00:10:27;6.13;;;5.17;;
12145;SDS011;6136;47.032;15.398;2022-08-25T00:12:56;6.93;;;5.17;;
12145;SDS011;6136;47.032;15.398;2022-08-25T00:15:24;5.20;;;4.53;;
12145;SDS011;6136;47.032;15.398;2022-08-25T00:17:52;9.10;;;5.90;;
12145;SDS011;6136;47.032;15.398;2022-08-25T00:20:21;5.60;;;4.40;;
12145;SDS011;6136;47.032;15.398;2022-08-25T00:22:50;6.03;;;4.60;;
12145;SDS011;6136;47.032;15.398;2022-08-25T00:25:19;7.93;;;5.63;;
12145;SDS011;6136;47.032;15.398;2022-08-25T00:27:49;6.23;;;5.37;;
12145;SDS011;6136;47.032;15.398;2022-08-25T00:30:17;8.40;;;6.20;;
12145;SDS011;6136;47.032;15.398;2022-08-25T00:32:45;6.63;;;5.07;;
12145;SDS011;6136;47.032;15.398;2022-08-25T00:35:20;6.57;;;5.07;;
12145;SDS011;6136;47.032;15.398;2022-08-25T00:37:51;7.77;;;6.10;;
12145;SDS011;6136;47.032;15.398;2022-08-25T00:40:19;7.47;;;5.83;;
12145;SDS011;6136;47.032;15.398;2022-08-25T00:42:49;9.93;;;6.20;;
12145;SDS011;6136;47.032;15.398;2022-08-25T00:45:17;8.10;;;6.03;;
12145;SDS011;6136;47.032;15.398;2022-08-25T00:47:45;8.10;;;6.13;;
12145;SDS011;6136;47.032;15.398;2022-08-25T00:50:13;7.57;;;5.80;;
12145;SDS011;6136;47.032;15.398;2022-08-25T00:52:44;7.30;;;5.93;;
12145;SDS011;6136;47.032;15.398;2022-08-25T00:55:17;6.03;;;4.90;;
12145;SDS011;6136;47.032;15.398;2022-08-25T00:57:50;7.27;;;5.27;;
12145;SDS011;6136;47.032;15.398;2022-08-25T01:00:24;6.60;;;5.67;;
12145;SDS011;6136;47.032;15.398;2022-08-25T01:02:54;10.33;;;5.80;;
12145;SDS011;6136;47.032;15.398;2022-08-25T01:05:23;8.80;;;6.13;;
12145;SDS011;6136;47.032;15.398;2022-08-25T01:07:52;7.17;;;5.50;;
12145;SDS011;6136;47.032;15.398;2022-08-25T01:10:25;11.23;;;5.60;;
12145;SDS011;6136;47.032;15.398;2022-08-25T01:12:55;7.80;;;5.17;;
12145;SDS011;6136;47.032;15.398;2022-08-25T01:15:28;8.70;;;6.10;;
12145;SDS011;6136;47.032;15.398;2022-08-25T01:17:57;6.47;;;5.13;;
12145;SDS011;6136;47.032;15.398;2022-08-25T01:20:27;9.23;;;5.63;;
12145;SDS011;6136;47.032;15.398;2022-08-25T01:22:59;10.93;;;5.40;;
12145;SDS011;6136;47.032;15.398;2022-08-25T01:25:31;9.90;;;5.50;;
12145;SDS011;6136;47.032;15.398;2022-08-25T01:28:10;7.03;;;5.20;;
12145;SDS011;6136;47.032;15.398;2022-08-25T01:30:38;8.40;;;5.50;;
12145;SDS011;6136;47.032;15.398;2022-08-25T01:33:07;7.90;;;5.30;;
12145;SDS011;6136;47.032;15.398;2022-08-25T01:35:38;7.33;;;5.40;;
12145;SDS011;6136;47.032;15.398;2022-08-25T01:38:08;7.83;;;5.13;;
12145;SDS011;6136;47.032;15.398;2022-08-25T01:40:36;7.27;;;5.70;;
12145;SDS011;6136;47.032;15.398;2022-08-25T01:43:06;6.03;;;5.03;;
12145;SDS011;6136;47.032;15.398;2022-08-25T01:45:44;5.73;;;4.93;;
12145;SDS011;6136;47.032;15.398;2022-08-25T01:48:15;7.23;;;5.10;;
12145;SDS011;6136;47.032;15.398;2022-08-25T01:50:43;5.83;;;5.17;;
12145;SDS011;6136;47.032;15.398;2022-08-25T01:53:17;6.90;;;5.47;;
12145;SDS011;6136;47.032;15.398;2022-08-25T01:55:48;9.07;;;7.17;;
12145;SDS011;6136;47.032;15.398;2022-08-25T01:58:22;10.80;;;5.97;;
12145;SDS011;6136;47.032;15.398;2022-08-25T02:00:52;7.93;;;5.90;;
12145;SDS011;6136;47.032;15.398;2022-08-25T02:03:22;6.53;;;5.73;;
12145;SDS011;6136;47.032;15.398;2022-08-25T02:05:56;7.63;;;6.00;;
12145;SDS011;6136;47.032;15.398;2022-08-25T02:08:26;9.70;;;6.07;;
12145;SDS011;6136;47.032;15.398;2022-08-25T02:10:54;5.60;;;4.73;;
12145;SDS011;6136;47.032;15.398;2022-08-25T02:13:22;7.17;;;5.37;;
12145;SDS011;6136;47.032;15.398;2022-08-25T02:15:53;8.20;;;5.90;;
12145;SDS011;6136;47.032;15.398;2022-08-25T02:18:23;8.17;;;5.50;;
12145;SDS011;6136;47.032;15.398;2022-08-25T02:20:51;7.43;;;5.77;;
12145;SDS011;6136;47.032;15.398;2022-08-25T02:23:20;5.70;;;4.90;;
12145;SDS011;6136;47.032;15.398;2022-08-25T02:25:49;8.97;;;5.80;;
12145;SDS011;6136;47.032;15.398;2022-08-25T02:28:17;6.67;;;5.43;;
12145;SDS011;6136;47.032;15.398;2022-08-25T02:30:46;9.77;;;6.17;;
12145;SDS011;6136;47.032;15.398;2022-08-25T02:33:15;8.67;;;5.70;;
12145;SDS011;6136;47.032;15.398;2022-08-25T02:35:43;8.87;;;6.37;;
12145;SDS011;6136;47.032;15.398;2022-08-25T02:38:11;7.60;;;5.60;;
12145;SDS011;6136;47.032;15.398;2022-08-25T02:40:40;7.10;;;5.80;;
12145;SDS011;6136;47.032;15.398;2022-08-25T02:43:09;14.50;;;6.23;;
12145;SDS011;6136;47.032;15.398;2022-08-25T02:45:37;7.47;;;5.73;;
12145;SDS011;6136;47.032;15.398;2022-08-25T02:48:07;7.17;;;5.80;;
12145;SDS011;6136;47.032;15.398;2022-08-25T02:50:35;8.13;;;5.50;;
12145;SDS011;6136;47.032;15.398;2022-08-25T02:53:03;6.73;;;5.20;;
12145;SDS011;6136;47.032;15.398;2022-08-25T02:55:31;6.53;;;5.50;;
12145;SDS011;6136;47.032;15.398;2022-08-25T02:58:00;9.13;;;6.10;;
12145;SDS011;6136;47.032;15.398;2022-08-25T03:00:29;6.73;;;5.20;;
12145;SDS011;6136;47.032;15.398;2022-08-25T03:02:57;7.50;;;6.20;;
12145;SDS011;6136;47.032;15.398;2022-08-25T03:05:25;9.93;;;5.83;;
12145;SDS011;6136;47.032;15.398;2022-08-25T03:07:54;7.53;;;4.90;;
12145;SDS011;6136;47.032;15.398;2022-08-25T03:10:22;6.17;;;5.30;;
12145;SDS011;6136;47.032;15.398;2022-08-25T03:12:50;7.03;;;5.20;;
12145;SDS011;6136;47.032;15.398;2022-08-25T03:15:19;8.90;;;5.33;;
12145;SDS011;6136;47.032;15.398;2022-08-25T03:17:48;7.20;;;5.87;;
12145;SDS011;6136;47.032;15.398;2022-08-25T03:20:17;6.03;;;5.37;;
12145;SDS011;6136;47.032;15.398;2022-08-25T03:22:45;6.20;;;5.20;;
12145;SDS011;6136;47.032;15.398;2022-08-25T03:25:14;6.30;;;5.40;;
12145;SDS011;6136;47.032;15.398;2022-08-25T03:28:01;6.87;;;5.63;;
12145;SDS011;6136;47.032;15.398;2022-08-25T03:30:30;7.00;;;5.23;;
12145;SDS011;6136;47.032;15.398;2022-08-25T03:32:59;8.13;;;5.63;;
12145;SDS011;6136;47.032;15.398;2022-08-25T03:35:27;6.63;;;5.60;;
12145;SDS011;6136;47.032;15.398;2022-08-25T03:37:56;8.83;;;5.30;;
12145;SDS011;6136;47.032;15.398;2022-08-25T03:40:25;7.10;;;5.80;;
12145;SDS011;6136;47.032;15.398;2022-08-25T03:42:54;5.67;;;5.00;;
12145;SDS011;6136;47.032;15.398;2022-08-25T03:45:23;8.30;;;6.40;;
12145;SDS011;6136;47.032;15.398;2022-08-25T03:47:52;6.33;;;4.83;;
12145;SDS011;6136;47.032;15.398;2022-08-25T03:50:22;8.77;;;5.80;;
12145;SDS011;6136;47.032;15.398;2022-08-25T03:52:50;6.37;;;5.20;;
12145;SDS011;6136;47.032;15.398;2022-08-25T03:55:20;10.23;;;5.70;;
12145;SDS011;6136;47.032;15.398;2022-08-25T03:57:49;8.40;;;5.50;;
12145;SDS011;6136;47.032;15.398;2022-08-25T04:00:18;8.07;;;5.33;;
12145;SDS011;6136;47.032;15.398;2022-08-25T04:02:47;6.43;;;4.90;;
12145;SDS011;6136;47.032;15.398;2022-08-25T04:05:16;5.60;;;5.00;;
12145;SDS011;6136;47.032;15.398;2022-08-25T04:07:47;5.67;;;4.60;;
12145;SDS011;6136;47.032;15.398;2022-08-25T04:10:15;10.63;;;5.47;;
12145;SDS011;6136;47.032;15.398;2022-08-25T04:12:43;8.57;;;5.80;;
12145;SDS011;6136;47.032;15.398;2022-08-25T04:15:11;7.97;;;5.50;;
12145;SDS011;6136;47.032;15.398;2022-08-25T04:17:39;8.27;;;5.57;;
12145;SDS011;6136;47.032;15.398;2022-08-25T04:20:08;7.93;;;4.97;;
12145;SDS011;6136;47.032;15.398;2022-08-25T04:22:39;7.33;;;5.37;;
12145;SDS011;6136;47.032;15.398;2022-08-25T04:25:11;6.63;;;5.50;;
12145;SDS011;6136;47.032;15.398;2022-08-25T04:27:40;8.30;;;4.97;;
12145;SDS011;6136;47.032;15.398;2022-08-25T04:30:09;9.03;;;5.87;;
12145;SDS011;6136;47.032;15.398;2022-08-25T04:32:38;9.13;;;5.07;;
12145;SDS011;6136;47.032;15.398;2022-08-25T04:35:06;6.83;;;5.63;;
12145;SDS011;6136;47.032;15.398;2022-08-25T04:37:34;10.03;;;6.10;;
12145;SDS011;6136;47.032;15.398;2022-08-25T04:40:03;11.37;;;6.43;;
12145;SDS011;6136;47.032;15.398;2022-08-25T04:42:33;9.00;;;6.30;;
12145;SDS011;6136;47.032;15.398;2022-08-25T04:45:01;9.13;;;5.50;;
12145;SDS011;6136;47.032;15.398;2022-08-25T04:47:31;6.53;;;5.43;;
12145;SDS011;6136;47.032;15.398;2022-08-25T04:50:04;10.27;;;5.87;;
12145;SDS011;6136;47.032;15.398;2022-08-25T04:52:33;8.10;;;6.00;;
12145;SDS011;6136;47.032;15.398;2022-08-25T04:55:01;6.37;;;5.17;;
12145;SDS011;6136;47.032;15.398;2022-08-25T04:57:29;7.50;;;5.63;;
12145;SDS011;6136;47.032;15.398;2022-08-25T04:59:59;7.27;;;6.07;;
12145;SDS011;6136;47.032;15.398;2022-08-25T05:02:27;9.43;;;6.17;;
12145;SDS011;6136;47.032;15.398;2022-08-25T05:04:55;7.07;;;5.47;;
12145;SDS011;6136;47.032;15.398;2022-08-25T05:07:24;7.63;;;5.47;;
12145;SDS011;6136;47.032;15.398;2022-08-25T05:09:52;7.97;;;6.00;;
12145;SDS011;6136;47.032;15.398;2022-08-25T05:12:20;8.00;;;5.93;;
12145;SDS011;6136;47.032;15.398;2022-08-25T05:14:50;7.60;;;6.00;;
12145;SDS011;6136;47.032;15.398;2022-08-25T05:17:20;8.83;;;5.73;;
12145;SDS011;6136;47.032;15.398;2022-08-25T05:19:48;6.03;;;5.20;;
12145;SDS011;6136;47.032;15.398;2022-08-25T05:22:16;6.63;;;5.93;;
12145;SDS011;6136;47.032;15.398;2022-08-25T05:24:44;8.47;;;6.43;;
12145;SDS011;6136;47.032;15.398;2022-08-25T05:27:13;8.50;;;6.10;;
12145;SDS011;6136;47.032;15.398;2022-08-25T05:29:41;9.27;;;6.13;;
12145;SDS011;6136;47.032;15.398;2022-08-25T05:32:09;7.70;;;5.93;;
12145;SDS011;6136;47.032;15.398;2022-08-25T05:34:38;6.78;;;5.97;;
12145;SDS011;6136;47.032;15.398;2022-08-25T05:37:06;16.00;;;10.93;;
12145;SDS011;6136;47.032;15.398;2022-08-25T05:39:37;12.90;;;8.70;;
12145;SDS011;6136;47.032;15.398;2022-08-25T05:42:05;9.77;;;7.18;;
12145;SDS011;6136;47.032;15.398;2022-08-25T05:44:34;8.50;;;6.13;;
12145;SDS011;6136;47.032;15.398;2022-08-25T05:47:02;10.27;;;6.50;;
12145;SDS011;6136;47.032;15.398;2022-08-25T05:49:30;7.30;;;6.50;;
12145;SDS011;6136;47.032;15.398;2022-08-25T05:52:00;10.38;;;6.25;;
12145;SDS011;6136;47.032;15.398;2022-08-25T05:54:28;7.80;;;5.82;;
12145;SDS011;6136;47.032;15.398;2022-08-25T05:56:57;8.85;;;6.43;;
12145;SDS011;6136;47.032;15.398;2022-08-25T05:59:25;7.20;;;6.13;;
12145;SDS011;6136;47.032;15.398;2022-08-25T06:01:53;7.82;;;6.10;;
12145;SDS011;6136;47.032;15.398;2022-08-25T06:04:39;8.48;;;6.38;;
12145;SDS011;6136;47.032;15.398;2022-08-25T06:07:08;7.78;;;6.22;;
12145;SDS011;6136;47.032;15.398;2022-08-25T06:09:37;14.15;;;10.27;;
12145;SDS011;6136;47.032;15.398;2022-08-25T06:12:07;22.88;;;15.52;;
12145;SDS011;6136;47.032;15.398;2022-08-25T06:14:35;15.63;;;11.60;;
12145;SDS011;6136;47.032;15.398;2022-08-25T06:17:03;6.68;;;5.35;;
12145;SDS011;6136;47.032;15.398;2022-08-25T06:19:31;6.50;;;5.43;;
12145;SDS011;6136;47.032;15.398;2022-08-25T06:21:59;7.60;;;5.78;;
12145;SDS011;6136;47.032;15.398;2022-08-25T06:24:29;8.13;;;4.95;;
12145;SDS011;6136;47.032;15.398;2022-08-25T06:26:57;7.00;;;5.10;;
12145;SDS011;6136;47.032;15.398;2022-08-25T06:29:25;6.00;;;5.13;;
12145;SDS011;6136;47.032;15.398;2022-08-25T06:31:54;7.35;;;5.55;;
12145;SDS011;6136;47.032;15.398;2022-08-25T06:34:22;8.57;;;5.38;;
12145;SDS011;6136;47.032;15.398;2022-08-25T06:36:51;8.65;;;5.35;;
12145;SDS011;6136;47.032;15.398;2022-08-25T06:39:19;7.72;;;5.13;;
12145;SDS011;6136;47.032;15.398;2022-08-25T06:41:51;10.52;;;5.40;;
12145;SDS011;6136;47.032;15.398;2022-08-25T06:44:19;7.57;;;5.50;;
12145;SDS011;6136;47.032;15.398;2022-08-25T06:46:48;7.15;;;5.45;;
12145;SDS011;6136;47.032;15.398;2022-08-25T06:49:16;5.30;;;4.80;;
12145;SDS011;6136;47.032;15.398;2022-08-25T06:51:44;10.52;;;4.97;;
12145;SDS011;6136;47.032;15.398;2022-08-25T06:54:13;7.97;;;4.75;;
12145;SDS011;6136;47.032;15.398;2022-08-25T06:56:41;6.82;;;4.72;;
12145;SDS011;6136;47.032;15.398;2022-08-25T06:59:11;12.88;;;5.75;;
12145;SDS011;6136;47.032;15.398;2022-08-25T07:01:39;6.15;;;5.25;;
12145;SDS011;6136;47.032;15.398;2022-08-25T07:04:07;7.55;;;5.75;;
12145;SDS011;6136;47.032;15.398;2022-08-25T07:06:38;6.88;;;4.88;;
12145;SDS011;6136;47.032;15.398;2022-08-25T07:09:07;8.68;;;5.10;;
12145;SDS011;6136;47.032;15.398;2022-08-25T07:11:36;7.15;;;5.25;;
12145;SDS011;6136;47.032;15.398;2022-08-25T07:14:05;8.15;;;5.68;;
12145;SDS011;6136;47.032;15.398;2022-08-25T07:16:38;7.25;;;5.38;;
12145;SDS011;6136;47.032;15.398;2022-08-25T07:19:08;8.75;;;5.60;;
12145;SDS011;6136;47.032;15.398;2022-08-25T07:21:38;6.13;;;5.20;;
12145;SDS011;6136;47.032;15.398;2022-08-25T07:24:08;6.68;;;5.40;;
12145;SDS011;6136;47.032;15.398;2022-08-25T07:26:39;6.60;;;5.88;;
12145;SDS011;6136;47.032;15.398;2022-08-25T07:29:09;8.60;;;5.53;;
12145;SDS011;6136;47.032;15.398;2022-08-25T07:31:40;6.35;;;5.63;;
12145;SDS011;6136;47.032;15.398;2022-08-25T07:34:08;10.18;;;5.72;;
12145;SDS011;6136;47.032;15.398;2022-08-25T07:37:09;7.07;;;5.70;;
12145;SDS011;6136;47.032;15.398;2022-08-25T07:39:42;9.00;;;5.97;;
12145;SDS011;6136;47.032;15.398;2022-08-25T07:42:11;10.40;;;5.68;;
12145;SDS011;6136;47.032;15.398;2022-08-25T07:44:40;9.98;;;6.00;;
12145;SDS011;6136;47.032;15.398;2022-08-25T07:47:10;11.57;;;6.20;;
12145;SDS011;6136;47.032;15.398;2022-08-25T07:49:38;10.50;;;6.40;;
12145;SDS011;6136;47.032;15.398;2022-08-25T07:52:06;7.93;;;6.43;;
12145;SDS011;6136;47.032;15.398;2022-08-25T07:54:36;9.02;;;5.95;;
12145;SDS011;6136;47.032;15.398;2022-08-25T07:57:04;10.23;;;6.82;;
12145;SDS011;6136;47.032;15.398;2022-08-25T07:59:34;14.43;;;8.00;;
12145;SDS011;6136;47.032;15.398;2022-08-25T08:02:06;14.35;;;7.97;;
12145;SDS011;6136;47.032;15.398;2022-08-25T08:04:43;9.93;;;6.82;;
12145;SDS011;6136;47.032;15.398;2022-08-25T08:07:11;12.50;;;7.85;;
12145;SDS011;6136;47.032;15.398;2022-08-25T08:09:39;11.60;;;7.40;;
12145;SDS011;6136;47.032;15.398;2022-08-25T08:12:08;11.07;;;6.45;;
12145;SDS011;6136;47.032;15.398;2022-08-25T08:14:36;11.13;;;7.70;;
12145;SDS011;6136;47.032;15.398;2022-08-25T08:17:10;9.32;;;6.90;;
12145;SDS011;6136;47.032;15.398;2022-08-25T08:19:39;10.73;;;7.45;;
12145;SDS011;6136;47.032;15.398;2022-08-25T08:22:12;11.27;;;7.13;;
12145;SDS011;6136;47.032;15.398;2022-08-25T08:24:42;10.07;;;7.95;;
12145;SDS011;6136;47.032;15.398;2022-08-25T08:27:20;12.52;;;7.32;;
12145;SDS011;6136;47.032;15.398;2022-08-25T08:29:48;12.00;;;7.72;;
12145;SDS011;6136;47.032;15.398;2022-08-25T08:32:18;11.90;;;6.75;;
12145;SDS011;6136;47.032;15.398;2022-08-25T08:34:46;10.88;;;8.00;;
12145;SDS011;6136;47.032;15.398;2022-08-25T08:37:18;13.63;;;7.63;;
12145;SDS011;6136;47.032;15.398;2022-08-25T08:39:48;12.18;;;6.78;;
12145;SDS011;6136;47.032;15.398;2022-08-25T08:42:25;12.32;;;7.30;;
12145;SDS011;6136;47.032;15.398;2022-08-25T08:45:19;9.40;;;7.20;;
12145;SDS011;6136;47.032;15.398;2022-08-25T08:50:55;9.30;;;6.60;;
12145;SDS011;6136;47.032;15.398;2022-08-25T08:53:39;12.13;;;7.70;;
12145;SDS011;6136;47.032;15.398;2022-08-25T08:56:13;11.45;;;6.95;;
12145;SDS011;6136;47.032;15.398;2022-08-25T08:58:43;10.48;;;7.30;;
12145;SDS011;6136;47.032;15.398;2022-08-25T09:01:17;11.52;;;7.72;;
12145;SDS011;6136;47.032;15.398;2022-08-25T09:03:51;10.35;;;7.78;;
12145;SDS011;6136;47.032;15.398;2022-08-25T09:06:27;9.00;;;7.35;;
12145;SDS011;6136;47.032;15.398;2022-08-25T09:09:02;15.43;;;7.63;;
12145;SDS011;6136;47.032;15.398;2022-08-25T09:11:36;12.02;;;7.55;;
12145;SDS011;6136;47.032;15.398;2022-08-25T09:14:20;15.48;;;7.15;;
12145;SDS011;6136;47.032;15.398;2022-08-25T09:17:05;12.05;;;7.68;;
12145;SDS011;6136;47.032;15.398;2022-08-25T09:19:48;12.68;;;7.03;;
12145;SDS011;6136;47.032;15.398;2022-08-25T09:22:34;12.93;;;8.43;;
12145;SDS011;6136;47.032;15.398;2022-08-25T09:25:16;9.10;;;6.75;;
12145;SDS011;6136;47.032;15.398;2022-08-25T09:28:12;12.90;;;7.63;;
12145;SDS011;6136;47.032;15.398;2022-08-25T09:30:48;11.95;;;7.95;;
12145;SDS011;6136;47.032;15.398;2022-08-25T09:33:22;13.15;;;7.72;;
12145;SDS011;6136;47.032;15.398;2022-08-25T09:35:52;12.35;;;7.30;;
12145;SDS011;6136;47.032;15.398;2022-08-25T09:38:23;9.02;;;6.40;;
12145;SDS011;6136;47.032;15.398;2022-08-25T09:40:54;10.75;;;7.32;;
12145;SDS011;6136;47.032;15.398;2022-08-25T09:43:29;12.85;;;7.50;;
12145;SDS011;6136;47.032;15.398;2022-08-25T09:45:59;10.75;;;7.30;;
12145;SDS011;6136;47.032;15.398;2022-08-25T09:48:29;9.15;;;7.03;;
12145;SDS011;6136;47.032;15.398;2022-08-25T09:51:09;9.18;;;7.10;;
12145;SDS011;6136;47.032;15.398;2022-08-25T09:53:44;15.18;;;6.97;;
12145;SDS011;6136;47.032;15.398;2022-08-25T09:56:20;10.23;;;7.22;;
12145;SDS011;6136;47.032;15.398;2022-08-25T09:58:50;10.02;;;6.95;;
12145;SDS011;6136;47.032;15.398;2022-08-25T10:01:19;9.38;;;6.93;;
12145;SDS011;6136;47.032;15.398;2022-08-25T10:03:53;12.65;;;7.97;;
12145;SDS011;6136;47.032;15.398;2022-08-25T10:06:23;8.30;;;6.55;;
12145;SDS011;6136;47.032;15.398;2022-08-25T10:08:55;11.65;;;7.45;;
12145;SDS011;6136;47.032;15.398;2022-08-25T10:11:35;9.25;;;6.68;;
12145;SDS011;6136;47.032;15.398;2022-08-25T10:14:25;8.73;;;6.35;;
12145;SDS011;6136;47.032;15.398;2022-08-25T10:17:10;8.90;;;7.45;;
12145;SDS011;6136;47.032;15.398;2022-08-25T10:19:42;12.77;;;8.38;;
12145;SDS011;6136;47.032;15.398;2022-08-25T10:22:11;11.40;;;7.28;;
12145;SDS011;6136;47.032;15.398;2022-08-25T10:24:47;10.68;;;7.60;;
12145;SDS011;6136;47.032;15.398;2022-08-25T10:27:21;10.85;;;7.28;;
12145;SDS011;6136;47.032;15.398;2022-08-25T10:30:05;9.75;;;7.45;;
12145;SDS011;6136;47.032;15.398;2022-08-25T10:32:50;12.48;;;7.00;;
12145;SDS011;6136;47.032;15.398;2022-08-25T10:35:30;11.40;;;7.57;;
12145;SDS011;6136;47.032;15.398;2022-08-25T10:38:03;8.70;;;7.47;;
12145;SDS011;6136;47.032;15.398;2022-08-25T10:40:39;10.48;;;6.82;;
12145;SDS011;6136;47.032;15.398;2022-08-25T10:43:21;9.38;;;7.13;;
12145;SDS011;6136;47.032;15.398;2022-08-25T10:45:59;14.90;;;8.07;;
12145;SDS011;6136;47.032;15.398;2022-08-25T10:51:37;9.45;;;6.90;;
12145;SDS011;6136;47.032;15.398;2022-08-25T10:54:19;12.85;;;7.22;;
12145;SDS011;6136;47.032;15.398;2022-08-25T10:57:01;8.40;;;6.55;;
12145;SDS011;6136;47.032;15.398;2022-08-25T10:59:47;9.20;;;6.43;;
12145;SDS011;6136;47.032;15.398;2022-08-25T11:02:28;8.45;;;6.53;;
12145;SDS011;6136;47.032;15.398;2022-08-25T11:05:11;9.18;;;6.65;;
12145;SDS011;6136;47.032;15.398;2022-08-25T11:07:50;8.20;;;6.47;;
12145;SDS011;6136;47.032;15.398;2022-08-25T11:10:24;8.07;;;6.53;;
12145;SDS011;6136;47.032;15.398;2022-08-25T11:12:59;12.63;;;5.90;;
12145;SDS011;6136;47.032;15.398;2022-08-25T11:15:35;9.93;;;6.13;;
12145;SDS011;6136;47.032;15.398;2022-08-25T11:18:25;7.30;;;5.38;;
12145;SDS011;6136;47.032;15.398;2022-08-25T11:20:59;6.32;;;5.40;;
12145;SDS011;6136;47.032;15.398;2022-08-25T11:23:34;6.25;;;5.65;;
12145;SDS011;6136;47.032;15.398;2022-08-25T11:26:06;6.53;;;5.93;;
12145;SDS011;6136;47.032;15.398;2022-08-25T11:28:42;7.80;;;5.63;;
12145;SDS011;6136;47.032;15.398;2022-08-25T11:31:20;7.70;;;5.35;;
12145;SDS011;6136;47.032;15.398;2022-08-25T11:33:50;6.15;;;5.22;;
12145;SDS011;6136;47.032;15.398;2022-08-25T11:36:24;6.32;;;5.18;;
12145;SDS011;6136;47.032;15.398;2022-08-25T11:38:59;8.02;;;5.40;;
12145;SDS011;6136;47.032;15.398;2022-08-25T11:41:38;6.15;;;5.57;;
12145;SDS011;6136;47.032;15.398;2022-08-25T11:44:17;7.43;;;5.82;;
12145;SDS011;6136;47.032;15.398;2022-08-25T11:47:04;7.70;;;6.10;;
12145;SDS011;6136;47.032;15.398;2022-08-25T11:49:51;6.10;;;5.20;;
12145;SDS011;6136;47.032;15.398;2022-08-25T11:52:40;9.30;;;6.13;;
12145;SDS011;6136;47.032;15.398;2022-08-25T11:55:12;13.52;;;6.15;;
12145;SDS011;6136;47.032;15.398;2022-08-25T11:57:44;8.75;;;5.60;;
12145;SDS011;6136;47.032;15.398;2022-08-25T12:06:29;6.60;;;5.40;;
12145;SDS011;6136;47.032;15.398;2022-08-25T12:09:15;8.45;;;6.25;;
12145;SDS011;6136;47.032;15.398;2022-08-25T12:11:49;6.35;;;5.38;;
12145;SDS011;6136;47.032;15.398;2022-08-25T12:14:35;7.95;;;5.70;;
12145;SDS011;6136;47.032;15.398;2022-08-25T12:20:05;7.05;;;5.65;;
12145;SDS011;6136;47.032;15.398;2022-08-25T12:22:39;9.10;;;5.55;;
12145;SDS011;6136;47.032;15.398;2022-08-25T12:25:21;7.05;;;5.47;;
12145;SDS011;6136;47.032;15.398;2022-08-25T12:28:04;6.38;;;5.45;;
12145;SDS011;6136;47.032;15.398;2022-08-25T12:30:45;6.63;;;6.00;;
12145;SDS011;6136;47.032;15.398;2022-08-25T12:33:24;8.48;;;5.93;;
12145;SDS011;6136;47.032;15.398;2022-08-25T12:36:05;7.75;;;5.63;;
12145;SDS011;6136;47.032;15.398;2022-08-25T12:38:39;10.32;;;5.85;;
12145;SDS011;6136;47.032;15.398;2022-08-25T12:41:17;8.25;;;5.75;;
12145;SDS011;6136;47.032;15.398;2022-08-25T12:43:50;8.23;;;6.78;;
12145;SDS011;6136;47.032;15.398;2022-08-25T12:46:33;8.45;;;6.03;;
12145;SDS011;6136;47.032;15.398;2022-08-25T12:49:04;7.15;;;6.45;;
12145;SDS011;6136;47.032;15.398;2022-08-25T12:51:48;6.53;;;5.78;;
12145;SDS011;6136;47.032;15.398;2022-08-25T12:54:29;8.45;;;5.47;;
12145;SDS011;6136;47.032;15.398;2022-08-25T12:57:11;9.70;;;6.22;;
12145;SDS011;6136;47.032;15.398;2022-08-25T12:59:55;8.98;;;5.50;;
12145;SDS011;6136;47.032;15.398;2022-08-25T13:02:36;7.40;;;5.80;;
12145;SDS011;6136;47.032;15.398;2022-08-25T13:05:29;6.35;;;5.72;;
12145;SDS011;6136;47.032;15.398;2022-08-25T13:08:22;6.65;;;5.10;;
12145;SDS011;6136;47.032;15.398;2022-08-25T13:11:14;6.50;;;5.10;;
12145;SDS011;6136;47.032;15.398;2022-08-25T13:13:48;6.70;;;5.18;;
12145;SDS011;6136;47.032;15.398;2022-08-25T13:16:23;6.55;;;5.43;;
12145;SDS011;6136;47.032;15.398;2022-08-25T13:18:55;8.32;;;5.88;;
12145;SDS011;6136;47.032;15.398;2022-08-25T13:21:27;7.95;;;5.57;;
12145;SDS011;6136;47.032;15.398;2022-08-25T13:23:58;9.27;;;5.97;;
12145;SDS011;6136;47.032;15.398;2022-08-25T13:26:32;7.90;;;5.30;;
12145;SDS011;6136;47.032;15.398;2022-08-25T13:29:15;7.15;;;5.80;;
12145;SDS011;6136;47.032;15.398;2022-08-25T13:31:51;7.50;;;6.15;;
12145;SDS011;6136;47.032;15.398;2022-08-25T13:34:23;7.05;;;5.60;;
12145;SDS011;6136;47.032;15.398;2022-08-25T13:37:03;8.88;;;5.63;;
12145;SDS011;6136;47.032;15.398;2022-08-25T13:39:50;10.82;;;6.28;;
12145;SDS011;6136;47.032;15.398;2022-08-25T13:42:37;6.85;;;5.68;;
12145;SDS011;6136;47.032;15.398;2022-08-25T13:45:08;6.13;;;5.53;;
12145;SDS011;6136;47.032;15.398;2022-08-25T13:47:42;7.85;;;6.03;;
12145;SDS011;6136;47.032;15.398;2022-08-25T13:50:19;11.43;;;5.70;;
12145;SDS011;6136;47.032;15.398;2022-08-25T13:52:57;6.47;;;5.50;;
12145;SDS011;6136;47.032;15.398;2022-08-25T13:55:27;6.13;;;5.45;;
12145;SDS011;6136;47.032;15.398;2022-08-25T13:58:18;10.35;;;5.13;;
12145;SDS011;6136;47.032;15.398;2022-08-25T14:00:59;9.05;;;5.15;;
12145;SDS011;6136;47.032;15.398;2022-08-25T14:03:52;7.45;;;5.45;;
12145;SDS011;6136;47.032;15.398;2022-08-25T14:06:26;6.68;;;5.35;;
12145;SDS011;6136;47.032;15.398;2022-08-25T14:09:06;12.18;;;5.80;;
12145;SDS011;6136;47.032;15.398;2022-08-25T14:11:43;9.02;;;5.47;;
12145;SDS011;6136;47.032;15.398;2022-08-25T14:17:09;7.80;;;5.65;;
12145;SDS011;6136;47.032;15.398;2022-08-25T14:19:58;9.68;;;5.28;;
12145;SDS011;6136;47.032;15.398;2022-08-25T14:22:27;9.93;;;5.97;;
12145;SDS011;6136;47.032;15.398;2022-08-25T14:24:55;7.60;;;5.10;;
12145;SDS011;6136;47.032;15.398;2022-08-25T14:27:23;8.02;;;5.07;;
12145;SDS011;6136;47.032;15.398;2022-08-25T14:29:51;8.77;;;5.20;;
12145;SDS011;6136;47.032;15.398;2022-08-25T14:32:21;4.85;;;4.35;;
12145;SDS011;6136;47.032;15.398;2022-08-25T14:34:49;8.07;;;4.82;;
12145;SDS011;6136;47.032;15.398;2022-08-25T14:37:18;6.55;;;4.30;;
12145;SDS011;6136;47.032;15.398;2022-08-25T14:39:51;8.15;;;4.93;;
12145;SDS011;6136;47.032;15.398;2022-08-25T14:42:20;8.10;;;4.78;;
12145;SDS011;6136;47.032;15.398;2022-08-25T14:44:50;7.38;;;4.03;;
12145;SDS011;6136;47.032;15.398;2022-08-25T14:47:18;5.47;;;4.93;;
12145;SDS011;6136;47.032;15.398;2022-08-25T14:49:48;5.65;;;4.53;;
12145;SDS011;6136;47.032;15.398;2022-08-25T14:52:18;6.50;;;4.72;;
12145;SDS011;6136;47.032;15.398;2022-08-25T14:54:48;7.40;;;4.72;;
12145;SDS011;6136;47.032;15.398;2022-08-25T14:57:17;7.55;;;5.20;;
12145;SDS011;6136;47.032;15.398;2022-08-25T14:59:46;6.05;;;4.50;;
12145;SDS011;6136;47.032;15.398;2022-08-25T15:02:15;8.60;;;4.88;;
12145;SDS011;6136;47.032;15.398;2022-08-25T15:04:48;7.30;;;5.28;;
12145;SDS011;6136;47.032;15.398;2022-08-25T15:07:19;7.05;;;5.40;;
12145;SDS011;6136;47.032;15.398;2022-08-25T15:10:05;7.55;;;4.90;;
12145;SDS011;6136;47.032;15.398;2022-08-25T15:12:34;7.35;;;4.90;;
12145;SDS011;6136;47.032;15.398;2022-08-25T15:15:13;9.40;;;4.57;;
12145;SDS011;6136;47.032;15.398;2022-08-25T15:17:41;9.77;;;5.07;;
12145;SDS011;6136;47.032;15.398;2022-08-25T15:20:13;10.63;;;5.88;;
12145;SDS011;6136;47.032;15.398;2022-08-25T15:22:41;9.75;;;5.22;;
12145;SDS011;6136;47.032;15.398;2022-08-25T15:25:11;6.68;;;4.72;;
12145;SDS011;6136;47.032;15.398;2022-08-25T15:27:39;7.28;;;5.45;;
12145;SDS011;6136;47.032;15.398;2022-08-25T15:30:08;5.55;;;4.90;;
12145;SDS011;6136;47.032;15.398;2022-08-25T15:32:38;5.93;;;4.93;;
12145;SDS011;6136;47.032;15.398;2022-08-25T15:35:06;5.68;;;4.60;;